sensor_id;sensor_type;location;lat;lon;timestamp;pressure;altitude;pressure_sealevel;temperature;humidity
11710;BME280;5911;51.036;6.972;2023-04-28T00:00:00;100498.78;;;13.84;78.67
11710;BME280;5911;51.036;6.972;2023-04-28T00:02:31;100496.81;;;13.86;76.15
11710;BME280;5911;51.036;6.972;2023-04-28T00:04:59;100494.31;;;13.85;78.34
11710;BME280;5911;51.036;6.972;2023-04-28T00:07:27;100487.19;;;13.85;80.42
11710;BME280;5911;51.036;6.972;2023-04-28T00:09:55;100486.34;;;13.85;79.54
11710;BME280;5911;51.036;6.972;2023-04-28T00:12:23;100479.22;;;13.85;77.44
11710;BME280;5911;51.036;6.972;2023-04-28T00:14:51;100475.59;;;13.86;80.86
11710;BME280;5911;51.036;6.972;2023-04-28T00:17:19;100475.59;;;13.86;82.39
11710;BME280;5911;51.036;6.972;2023-04-28T00:19:48;100468.63;;;13.85;86.75
11710;BME280;5911;51.036;6.972;2023-04-28T00:22:16;100464.59;;;13.81;87.36
11710;BME280;5911;51.036;6.972;2023-04-28T00:24:44;100453.31;;;13.79;88.60
11710;BME280;5911;51.036;6.972;2023-04-28T00:27:12;100435.38;;;13.73;91.06
11710;BME280;5911;51.036;6.972;2023-04-28T00:29:40;100449.47;;;13.73;89.55
11710;BME280;5911;51.036;6.972;2023-04-28T00:32:08;100433.38;;;13.75;89.92
11710;BME280;5911;51.036;6.972;2023-04-28T00:34:36;100438.03;;;13.73;91.93
11710;BME280;5911;51.036;6.972;2023-04-28T00:37:05;100436.84;;;13.76;91.91
11710;BME280;5911;51.036;6.972;2023-04-28T00:39:33;100424.63;;;13.75;90.25
11710;BME280;5911;51.036;6.972;2023-04-28T00:42:00;100423.59;;;13.76;92.66
11710;BME280;5911;51.036;6.972;2023-04-28T00:44:29;100425.75;;;13.72;94.53
11710;BME280;5911;51.036;6.972;2023-04-28T00:46:58;100418.91;;;13.69;94.76
11710;BME280;5911;51.036;6.972;2023-04-28T00:49:26;100419.91;;;13.68;96.01
11710;BME280;5911;51.036;6.972;2023-04-28T00:51:54;100426.34;;;13.66;93.18
11710;BME280;5911;51.036;6.972;2023-04-28T00:54:23;100419.06;;;13.68;94.64
11710;BME280;5911;51.036;6.972;2023-04-28T00:56:51;100372.97;;;13.33;95.06
11710;BME280;5911;51.036;6.972;2023-04-28T00:59:19;100418.38;;;13.66;97.09
11710;BME280;5911;51.036;6.972;2023-04-28T01:01:47;100424.81;;;13.63;97.01
11710;BME280;5911;51.036;6.972;2023-04-28T01:04:15;100430.25;;;13.62;99.21
11710;BME280;5911;51.036;6.972;2023-04-28T01:06:44;100414.97;;;13.56;98.06
11710;BME280;5911;51.036;6.972;2023-04-28T01:09:13;100406.03;;;13.57;100.00
11710;BME280;5911;51.036;6.972;2023-04-28T01:11:42;100403.53;;;13.55;100.00
11710;BME280;5911;51.036;6.972;2023-04-28T01:14:16;100409.97;;;13.53;100.00
11710;BME280;5911;51.036;6.972;2023-04-28T01:16:44;100409.97;;;13.53;100.00
11710;BME280;5911;51.036;6.972;2023-04-28T01:19:19;100406.34;;;13.54;100.00
11710;BME280;5911;51.036;6.972;2023-04-28T01:21:48;100406.75;;;13.49;100.00
11710;BME280;5911;51.036;6.972;2023-04-28T01:24:21;100404.41;;;13.46;100.00
11710;BME280;5911;51.036;6.972;2023-04-28T01:26:49;100397.75;;;13.42;100.00
11710;BME280;5911;51.036;6.972;2023-04-28T01:29:17;100403.22;;;13.41;100.00
11710;BME280;5911;51.036;6.972;2023-04-28T01:31:45;100406.16;;;13.37;100.00
11710;BME280;5911;51.036;6.972;2023-04-28T01:34:13;100411.44;;;13.37;100.00
11710;BME280;5911;51.036;6.972;2023-04-28T01:36:41;100413.13;;;13.38;100.00
11710;BME280;5911;51.036;6.972;2023-04-28T01:39:09;100404.63;;;13.35;100.00
11710;BME280;5911;51.036;6.972;2023-04-28T01:41:40;100405.59;;;13.34;100.00
11710;BME280;5911;51.036;6.972;2023-04-28T01:44:08;100383.38;;;13.17;100.00
11710;BME280;5911;51.036;6.972;2023-04-28T01:46:37;100412.03;;;13.31;100.00
11710;BME280;5911;51.036;6.972;2023-04-28T01:49:06;100397.94;;;13.31;100.00
11710;BME280;5911;51.036;6.972;2023-04-28T01:51:33;100388.09;;;13.23;100.00
11710;BME280;5911;51.036;6.972;2023-04-28T01:54:01;100394.47;;;13.30;100.00
11710;BME280;5911;51.036;6.972;2023-04-28T01:56:29;100400.75;;;13.29;100.00
11710;BME280;5911;51.036;6.972;2023-04-28T01:58:59;100393.81;;;13.28;100.00
11710;BME280;5911;51.036;6.972;2023-04-28T02:01:27;100409.00;;;13.26;100.00
11710;BME280;5911;51.036;6.972;2023-04-28T02:03:55;100408.16;;;13.26;100.00
11710;BME280;5911;51.036;6.972;2023-04-28T02:06:23;100407.19;;;13.27;100.00
11710;BME280;5911;51.036;6.972;2023-04-28T02:08:53;100410.28;;;13.22;100.00
11710;BME280;5911;51.036;6.972;2023-04-28T02:11:20;100396.09;;;13.14;100.00
11710;BME280;5911;51.036;6.972;2023-04-28T02:13:53;100409.31;;;13.14;100.00
11710;BME280;5911;51.036;6.972;2023-04-28T02:16:23;100406.38;;;13.17;100.00
11710;BME280;5911;51.036;6.972;2023-04-28T02:18:51;100407.38;;;13.16;100.00
11710;BME280;5911;51.036;6.972;2023-04-28T02:21:19;100410.56;;;13.19;100.00
11710;BME280;5911;51.036;6.972;2023-04-28T02:23:47;100409.88;;;13.17;100.00
11710;BME280;5911;51.036;6.972;2023-04-28T02:26:15;100417.13;;;13.15;100.00
11710;BME280;5911;51.036;6.972;2023-04-28T02:28:43;100404.03;;;13.14;100.00
11710;BME280;5911;51.036;6.972;2023-04-28T02:31:11;100397.91;;;13.13;100.00
11710;BME280;5911;51.036;6.972;2023-04-28T02:33:41;100395.25;;;13.13;100.00
11710;BME280;5911;51.036;6.972;2023-04-28T02:36:09;100391.22;;;13.09;100.00
11710;BME280;5911;51.036;6.972;2023-04-28T02:38:38;100385.63;;;13.12;100.00
11710;BME280;5911;51.036;6.972;2023-04-28T02:41:06;100386.19;;;13.16;100.00
11710;BME280;5911;51.036;6.972;2023-04-28T02:43:36;100375.31;;;13.09;100.00
11710;BME280;5911;51.036;6.972;2023-04-28T02:46:04;100341.69;;;12.92;100.00
11710;BME280;5911;51.036;6.972;2023-04-28T02:48:33;100383.53;;;13.16;100.00
11710;BME280;5911;51.036;6.972;2023-04-28T02:51:04;100374.34;;;13.10;100.00
11710;BME280;5911;51.036;6.972;2023-04-28T02:53:33;100370.41;;;13.14;100.00
11710;BME280;5911;51.036;6.972;2023-04-28T02:56:00;100373.06;;;13.14;100.00
11710;BME280;5911;51.036;6.972;2023-04-28T02:58:31;100366.94;;;13.14;100.00
11710;BME280;5911;51.036;6.972;2023-04-28T03:00:59;100370.88;;;13.10;100.00
11710;BME280;5911;51.036;6.972;2023-04-28T03:03:27;100365.41;;;13.11;100.00
11710;BME280;5911;51.036;6.972;2023-04-28T03:05:55;100368.91;;;13.12;100.00
11710;BME280;5911;51.036;6.972;2023-04-28T03:08:24;100360.13;;;13.11;100.00
11710;BME280;5911;51.036;6.972;2023-04-28T03:10:53;100371.41;;;13.13;100.00
11710;BME280;5911;51.036;6.972;2023-04-28T03:13:21;100363.63;;;13.12;100.00
11710;BME280;5911;51.036;6.972;2023-04-28T03:15:49;100360.81;;;13.13;100.00
11710;BME280;5911;51.036;6.972;2023-04-28T03:18:18;100362.47;;;13.14;100.00
11710;BME280;5911;51.036;6.972;2023-04-28T03:20:45;100364.84;;;13.17;100.00
11710;BME280;5911;51.036;6.972;2023-04-28T03:23:13;100361.38;;;13.17;100.00
11710;BME280;5911;51.036;6.972;2023-04-28T03:25:42;100352.19;;;13.11;100.00
11710;BME280;5911;51.036;6.972;2023-04-28T03:28:10;100354.41;;;13.16;100.00
11710;BME280;5911;51.036;6.972;2023-04-28T03:30:38;100351.59;;;13.17;100.00
11710;BME280;5911;51.036;6.972;2023-04-28T03:33:06;100363.19;;;13.16;100.00
11710;BME280;5911;51.036;6.972;2023-04-28T03:35:34;100364.31;;;13.14;100.00
11710;BME280;5911;51.036;6.972;2023-04-28T03:38:02;100347.88;;;13.10;100.00
11710;BME280;5911;51.036;6.972;2023-04-28T03:40:30;100349.69;;;13.10;100.00
11710;BME280;5911;51.036;6.972;2023-04-28T03:43:11;100321.56;;;12.99;100.00
11710;BME280;5911;51.036;6.972;2023-04-28T03:45:47;100337.28;;;13.10;100.00
11710;BME280;5911;51.036;6.972;2023-04-28T03:48:15;100335.06;;;13.06;100.00
11710;BME280;5911;51.036;6.972;2023-04-28T03:50:43;100337.16;;;13.02;100.00
11710;BME280;5911;51.036;6.972;2023-04-28T03:53:12;100335.50;;;13.01;100.00
11710;BME280;5911;51.036;6.972;2023-04-28T03:55:40;100333.53;;;13.03;100.00
11710;BME280;5911;51.036;6.972;2023-04-28T03:58:08;100328.09;;;13.04;100.00
11710;BME280;5911;51.036;6.972;2023-04-28T04:00:37;100317.66;;;13.03;100.00
11710;BME280;5911;51.036;6.972;2023-04-28T04:03:05;100306.38;;;13.01;100.00
11710;BME280;5911;51.036;6.972;2023-04-28T04:05:33;100288.53;;;13.03;100.00
11710;BME280;5911;51.036;6.972;2023-04-28T04:08:01;100259.91;;;12.89;100.00
11710;BME280;5911;51.036;6.972;2023-04-28T04:10:28;100282.53;;;13.01;100.00
11710;BME280;5911;51.036;6.972;2023-04-28T04:12:56;100281.84;;;12.99;100.00
11710;BME280;5911;51.036;6.972;2023-04-28T04:15:24;100278.22;;;13.00;100.00
11710;BME280;5911;51.036;6.972;2023-04-28T04:17:54;100265.97;;;12.99;100.00
11710;BME280;5911;51.036;6.972;2023-04-28T04:20:24;100253.88;;;12.96;100.00
11710;BME280;5911;51.036;6.972;2023-04-28T04:22:52;100244.13;;;12.97;100.00
11710;BME280;5911;51.036;6.972;2023-04-28T04:25:29;100243.28;;;12.96;100.00
11710;BME280;5911;51.036;6.972;2023-04-28T04:27:58;100254.72;;;12.97;100.00
11710;BME280;5911;51.036;6.972;2023-04-28T04:30:26;100244.13;;;12.97;100.00
11710;BME280;5911;51.036;6.972;2023-04-28T04:32:55;100246.09;;;12.95;100.00
11710;BME280;5911;51.036;6.972;2023-04-28T04:35:23;100256.38;;;12.98;100.00
11710;BME280;5911;51.036;6.972;2023-04-28T04:37:51;100254.56;;;12.98;100.00
11710;BME280;5911;51.036;6.972;2023-04-28T04:40:19;100262.34;;;13.00;100.00
11710;BME280;5911;51.036;6.972;2023-04-28T04:42:48;100260.66;;;12.99;100.00
11710;BME280;5911;51.036;6.972;2023-04-28T04:45:18;100256.38;;;12.98;100.00
11710;BME280;5911;51.036;6.972;2023-04-28T04:47:46;100262.56;;;12.89;100.00
11710;BME280;5911;51.036;6.972;2023-04-28T04:50:17;100263.94;;;12.93;100.00
11710;BME280;5911;51.036;6.972;2023-04-28T04:52:45;100269.09;;;12.94;100.00
11710;BME280;5911;51.036;6.972;2023-04-28T04:55:12;100262.13;;;12.93;100.00
11710;BME280;5911;51.036;6.972;2023-04-28T04:57:41;100268.59;;;12.99;100.00
11710;BME280;5911;51.036;6.972;2023-04-28T05:00:27;100245.28;;;12.85;100.00
11710;BME280;5911;51.036;6.972;2023-04-28T05:02:55;100258.34;;;12.96;100.00
11710;BME280;5911;51.036;6.972;2023-04-28T05:05:24;100271.94;;;13.01;100.00
11710;BME280;5911;51.036;6.972;2023-04-28T05:08:10;100252.25;;;12.86;100.00
11710;BME280;5911;51.036;6.972;2023-04-28T05:10:39;100271.25;;;12.99;100.00
11710;BME280;5911;51.036;6.972;2023-04-28T05:13:07;100277.38;;;12.99;100.00
11710;BME280;5911;51.036;6.972;2023-04-28T05:15:35;100278.91;;;13.02;100.00
11710;BME280;5911;51.036;6.972;2023-04-28T05:18:26;100265.97;;;12.99;100.00
11710;BME280;5911;51.036;6.972;2023-04-28T05:20:55;100271.25;;;12.99;100.00
11710;BME280;5911;51.036;6.972;2023-04-28T05:23:23;100268.94;;;12.96;100.00
11710;BME280;5911;51.036;6.972;2023-04-28T05:25:51;100260.31;;;12.94;100.00
11710;BME280;5911;51.036;6.972;2023-04-28T05:28:19;100247.44;;;12.99;100.00
11710;BME280;5911;51.036;6.972;2023-04-28T05:30:51;100244.63;;;13.00;100.00
11710;BME280;5911;51.036;6.972;2023-04-28T05:33:18;100246.44;;;13.00;100.00
11710;BME280;5911;51.036;6.972;2023-04-28T05:35:46;100265.97;;;12.99;100.00
11710;BME280;5911;51.036;6.972;2023-04-28T05:38:16;100264.00;;;13.01;100.00
11710;BME280;5911;51.036;6.972;2023-04-28T05:40:47;100259.41;;;13.03;100.00
11710;BME280;5911;51.036;6.972;2023-04-28T05:43:16;100262.03;;;13.03;100.00
11710;BME280;5911;51.036;6.972;2023-04-28T05:45:44;100264.69;;;13.03;100.00
11710;BME280;5911;51.036;6.972;2023-04-28T05:48:12;100263.72;;;13.04;100.00
11710;BME280;5911;51.036;6.972;2023-04-28T05:50:40;100265.22;;;13.07;100.00
11710;BME280;5911;51.036;6.972;2023-04-28T05:53:09;100261.31;;;13.11;100.00
11710;BME280;5911;51.036;6.972;2023-04-28T05:55:38;100257.53;;;13.13;100.00
11710;BME280;5911;51.036;6.972;2023-04-28T05:58:13;100250.41;;;13.14;100.00
11710;BME280;5911;51.036;6.972;2023-04-28T06:00:41;100254.59;;;13.16;100.00
11710;BME280;5911;51.036;6.972;2023-04-28T06:03:09;100238.59;;;13.08;100.00
11710;BME280;5911;51.036;6.972;2023-04-28T06:05:37;100253.75;;;13.16;100.00
11710;BME280;5911;51.036;6.972;2023-04-28T06:08:06;100248.16;;;13.19;100.00
11710;BME280;5911;51.036;6.972;2023-04-28T06:10:34;100234.53;;;13.14;100.00
11710;BME280;5911;51.036;6.972;2023-04-28T06:13:03;100245.38;;;13.20;100.00
11710;BME280;5911;51.036;6.972;2023-04-28T06:15:32;100245.75;;;13.25;100.00
11710;BME280;5911;51.036;6.972;2023-04-28T06:18:00;100244.44;;;13.29;100.00
11710;BME280;5911;51.036;6.972;2023-04-28T06:20:27;100243.16;;;13.33;100.00
11710;BME280;5911;51.036;6.972;2023-04-28T06:22:56;100244.16;;;13.32;100.00
11710;BME280;5911;51.036;6.972;2023-04-28T06:25:24;100249.75;;;13.29;100.00
11710;BME280;5911;51.036;6.972;2023-04-28T06:27:52;100245.81;;;13.33;100.00
11710;BME280;5911;51.036;6.972;2023-04-28T06:30:21;100244.16;;;13.32;100.00
11710;BME280;5911;51.036;6.972;2023-04-28T06:32:49;100239.00;;;13.31;100.00
11710;BME280;5911;51.036;6.972;2023-04-28T06:35:17;100234.38;;;13.33;100.00
11710;BME280;5911;51.036;6.972;2023-04-28T06:37:45;100236.59;;;13.37;100.00
11710;BME280;5911;51.036;6.972;2023-04-28T06:40:14;100207.31;;;13.21;100.00
11710;BME280;5911;51.036;6.972;2023-04-28T06:42:49;100256.78;;;13.56;100.00
11710;BME280;5911;51.036;6.972;2023-04-28T06:45:24;100250.41;;;13.67;100.00
11710;BME280;5911;51.036;6.972;2023-04-28T06:47:53;100243.81;;;13.71;100.00
11710;BME280;5911;51.036;6.972;2023-04-28T06:50:22;100241.84;;;13.73;100.00
11710;BME280;5911;51.036;6.972;2023-04-28T06:52:50;100244.34;;;13.75;100.00
11710;BME280;5911;51.036;6.972;2023-04-28T06:55:18;100241.22;;;13.79;100.00
11710;BME280;5911;51.036;6.972;2023-04-28T06:57:46;100237.19;;;13.75;100.00
11710;BME280;5911;51.036;6.972;2023-04-28T07:00:14;100243.88;;;13.79;100.00
11710;BME280;5911;51.036;6.972;2023-04-28T07:02:43;100242.03;;;13.80;100.00
11710;BME280;5911;51.036;6.972;2023-04-28T07:05:11;100248.56;;;13.85;100.00
11710;BME280;5911;51.036;6.972;2023-04-28T07:07:42;100256.50;;;13.85;100.00
11710;BME280;5911;51.036;6.972;2023-04-28T07:10:09;100248.88;;;13.82;100.00
11710;BME280;5911;51.036;6.972;2023-04-28T07:12:38;100242.88;;;13.80;100.00
11710;BME280;5911;51.036;6.972;2023-04-28T07:15:07;100251.13;;;13.77;100.00
11710;BME280;5911;51.036;6.972;2023-04-28T07:17:36;100258.03;;;13.88;100.00
11710;BME280;5911;51.036;6.972;2023-04-28T07:20:06;100264.00;;;13.90;100.00
11710;BME280;5911;51.036;6.972;2023-04-28T07:22:34;100250.38;;;13.85;100.00
11710;BME280;5911;51.036;6.972;2023-04-28T07:25:05;100260.97;;;13.85;100.00
11710;BME280;5911;51.036;6.972;2023-04-28T07:27:32;100242.88;;;13.80;100.00
11710;BME280;5911;51.036;6.972;2023-04-28T07:30:00;100263.81;;;13.91;100.00
11710;BME280;5911;51.036;6.972;2023-04-28T07:32:44;100266.56;;;13.99;100.00
11710;BME280;5911;51.036;6.972;2023-04-28T07:35:13;100244.34;;;14.00;100.00
11710;BME280;5911;51.036;6.972;2023-04-28T07:37:41;100250.25;;;13.94;100.00
11710;BME280;5911;51.036;6.972;2023-04-28T07:40:09;100251.94;;;13.95;100.00
11710;BME280;5911;51.036;6.972;2023-04-28T07:42:37;100246.31;;;13.98;100.00
11710;BME280;5911;51.036;6.972;2023-04-28T07:45:08;100221.97;;;13.77;100.00
11710;BME280;5911;51.036;6.972;2023-04-28T07:47:36;100226.66;;;13.83;100.00
11710;BME280;5911;51.036;6.972;2023-04-28T07:50:05;100246.34;;;14.06;100.00
11710;BME280;5911;51.036;6.972;2023-04-28T07:52:35;100253.56;;;14.22;100.00
11710;BME280;5911;51.036;6.972;2023-04-28T07:55:03;100247.13;;;14.25;100.00
11710;BME280;5911;51.036;6.972;2023-04-28T07:57:31;100245.38;;;14.33;100.00
11710;BME280;5911;51.036;6.972;2023-04-28T07:59:59;100241.88;;;14.33;100.00
11710;BME280;5911;51.036;6.972;2023-04-28T08:02:37;100255.00;;;14.34;100.00
11710;BME280;5911;51.036;6.972;2023-04-28T08:05:05;100251.50;;;14.34;100.00
11710;BME280;5911;51.036;6.972;2023-04-28T08:07:36;100247.13;;;14.25;100.00
11710;BME280;5911;51.036;6.972;2023-04-28T08:10:04;100252.13;;;14.28;100.00
11710;BME280;5911;51.036;6.972;2023-04-28T08:12:32;100249.91;;;14.41;100.00
11710;BME280;5911;51.036;6.972;2023-04-28T08:15:00;100259.97;;;14.37;100.00
11710;BME280;5911;51.036;6.972;2023-04-28T08:17:29;100249.53;;;14.36;100.00
11710;BME280;5911;51.036;6.972;2023-04-28T08:19:57;100244.38;;;14.34;100.00
11710;BME280;5911;51.036;6.972;2023-04-28T08:22:25;100249.59;;;14.44;100.00
11710;BME280;5911;51.036;6.972;2023-04-28T08:24:54;100237.34;;;14.51;100.00
11710;BME280;5911;51.036;6.972;2023-04-28T08:27:22;100251.47;;;14.60;100.00
11710;BME280;5911;51.036;6.972;2023-04-28T08:29:51;100250.13;;;14.56;100.00
11710;BME280;5911;51.036;6.972;2023-04-28T08:32:19;100252.00;;;14.63;100.00
11710;BME280;5911;51.036;6.972;2023-04-28T08:34:47;100248.69;;;14.69;100.00
11710;BME280;5911;51.036;6.972;2023-04-28T08:37:14;100246.53;;;14.73;100.00
11710;BME280;5911;51.036;6.972;2023-04-28T08:39:42;100239.25;;;14.75;100.00
11710;BME280;5911;51.036;6.972;2023-04-28T08:42:12;100256.38;;;14.89;100.00
11710;BME280;5911;51.036;6.972;2023-04-28T08:44:40;100251.72;;;14.83;100.00
11710;BME280;5911;51.036;6.972;2023-04-28T08:47:11;100250.44;;;14.95;100.00
11710;BME280;5911;51.036;6.972;2023-04-28T08:49:40;100241.28;;;14.97;100.00
11710;BME280;5911;51.036;6.972;2023-04-28T08:52:10;100252.75;;;14.98;100.00
11710;BME280;5911;51.036;6.972;2023-04-28T08:54:39;100254.09;;;14.94;100.00
11710;BME280;5911;51.036;6.972;2023-04-28T08:57:08;100260.56;;;14.99;100.00
11710;BME280;5911;51.036;6.972;2023-04-28T08:59:46;100253.41;;;15.00;100.00
11710;BME280;5911;51.036;6.972;2023-04-28T09:02:15;100255.41;;;14.98;100.00
11710;BME280;5911;51.036;6.972;2023-04-28T09:04:43;100265.03;;;14.99;100.00
11710;BME280;5911;51.036;6.972;2023-04-28T09:07:11;100238.78;;;14.88;100.00
11710;BME280;5911;51.036;6.972;2023-04-28T09:09:39;100262.72;;;15.04;100.00
11710;BME280;5911;51.036;6.972;2023-04-28T09:12:07;100258.25;;;15.04;100.00
11710;BME280;5911;51.036;6.972;2023-04-28T09:14:36;100256.09;;;15.08;100.00
11710;BME280;5911;51.036;6.972;2023-04-28T09:17:11;100253.78;;;15.13;100.00
11710;BME280;5911;51.036;6.972;2023-04-28T09:19:40;100254.78;;;15.12;100.00
11710;BME280;5911;51.036;6.972;2023-04-28T09:22:09;100252.94;;;15.12;100.00
11710;BME280;5911;51.036;6.972;2023-04-28T09:24:52;100260.59;;;15.07;100.00
11710;BME280;5911;51.036;6.972;2023-04-28T09:27:25;100251.94;;;15.05;100.00
11710;BME280;5911;51.036;6.972;2023-04-28T09:29:54;100247.78;;;15.03;100.00
11710;BME280;5911;51.036;6.972;2023-04-28T09:32:25;100240.81;;;15.02;100.00
11710;BME280;5911;51.036;6.972;2023-04-28T09:34:55;100238.00;;;15.03;100.00
11710;BME280;5911;51.036;6.972;2023-04-28T09:37:26;100251.31;;;15.11;100.00
11710;BME280;5911;51.036;6.972;2023-04-28T09:40:01;100226.03;;;14.99;100.00
11710;BME280;5911;51.036;6.972;2023-04-28T09:42:31;100256.78;;;15.18;100.00
11710;BME280;5911;51.036;6.972;2023-04-28T09:45:00;100235.84;;;15.07;100.00
11710;BME280;5911;51.036;6.972;2023-04-28T09:47:34;100252.13;;;15.12;100.00
11710;BME280;5911;51.036;6.972;2023-04-28T09:50:03;100249.47;;;15.12;100.00
11710;BME280;5911;51.036;6.972;2023-04-28T09:52:33;100244.13;;;15.04;100.00
11710;BME280;5911;51.036;6.972;2023-04-28T09:55:02;100254.09;;;15.02;100.00
11710;BME280;5911;51.036;6.972;2023-04-28T09:57:31;100251.44;;;15.02;100.00
11710;BME280;5911;51.036;6.972;2023-04-28T10:00:00;100254.41;;;14.99;100.00
11710;BME280;5911;51.036;6.972;2023-04-28T10:02:37;100253.41;;;15.00;100.00
11710;BME280;5911;51.036;6.972;2023-04-28T10:05:10;100243.47;;;14.94;100.00
11710;BME280;5911;51.036;6.972;2023-04-28T10:07:39;100253.41;;;14.92;100.00
11710;BME280;5911;51.036;6.972;2023-04-28T10:10:09;100243.78;;;14.91;100.00
11710;BME280;5911;51.036;6.972;2023-04-28T10:12:40;100245.59;;;14.98;100.00
11710;BME280;5911;51.036;6.972;2023-04-28T10:15:11;100225.53;;;14.96;100.00
11710;BME280;5911;51.036;6.972;2023-04-28T10:17:41;100246.16;;;15.18;100.00
11710;BME280;5911;51.036;6.972;2023-04-28T10:20:10;100233.53;;;15.20;100.00
11710;BME280;5911;51.036;6.972;2023-04-28T10:22:51;100253.16;;;15.27;100.00
11710;BME280;5911;51.036;6.972;2023-04-28T10:25:25;100243.84;;;15.23;100.00
11710;BME280;5911;51.036;6.972;2023-04-28T10:27:54;100247.00;;;15.27;100.00
11710;BME280;5911;51.036;6.972;2023-04-28T10:30:23;100244.50;;;15.25;100.00
11710;BME280;5911;51.036;6.972;2023-04-28T10:33:33;100246.81;;;15.28;100.00
11710;BME280;5911;51.036;6.972;2023-04-28T10:36:01;100229.53;;;15.16;100.00
11710;BME280;5911;51.036;6.972;2023-04-28T10:38:30;100247.50;;;15.22;100.00
11710;BME280;5911;51.036;6.972;2023-04-28T10:40:57;100242.84;;;15.24;100.00
11710;BME280;5911;51.036;6.972;2023-04-28T10:43:35;100248.16;;;15.24;100.00
11710;BME280;5911;51.036;6.972;2023-04-28T10:46:06;100243.84;;;15.23;100.00
11710;BME280;5911;51.036;6.972;2023-04-28T10:48:55;100236.53;;;15.25;100.00
11710;BME280;5911;51.036;6.972;2023-04-28T10:51:31;100220.72;;;15.16;100.00
11710;BME280;5911;51.036;6.972;2023-04-28T10:54:17;100236.19;;;15.28;100.00
11710;BME280;5911;51.036;6.972;2023-04-28T10:57:14;100240.53;;;15.37;100.00
11710;BME280;5911;51.036;6.972;2023-04-28T10:59:42;100237.19;;;15.35;100.00
11710;BME280;5911;51.036;6.972;2023-04-28T11:02:38;100234.88;;;15.40;100.00
11710;BME280;5911;51.036;6.972;2023-04-28T11:05:15;100228.25;;;15.53;100.00
11710;BME280;5911;51.036;6.972;2023-04-28T11:11:20;100228.25;;;15.85;100.00
11710;BME280;5911;51.036;6.972;2023-04-28T11:13:48;100223.56;;;15.95;100.00
11710;BME280;5911;51.036;6.972;2023-04-28T11:16:18;100223.56;;;15.95;100.00
11710;BME280;5911;51.036;6.972;2023-04-28T11:18:51;100223.22;;;15.98;100.00
11710;BME280;5911;51.036;6.972;2023-04-28T11:21:24;100220.53;;;16.06;100.00
11710;BME280;5911;51.036;6.972;2023-04-28T11:23:53;100222.84;;;16.17;100.00
11710;BME280;5911;51.036;6.972;2023-04-28T11:26:22;100193.25;;;16.12;100.00
11710;BME280;5911;51.036;6.972;2023-04-28T11:28:51;100216.81;;;16.32;100.00
11710;BME280;5911;51.036;6.972;2023-04-28T11:31:20;100213.59;;;16.44;100.00
11710;BME280;5911;51.036;6.972;2023-04-28T11:33:56;100212.78;;;16.44;100.00
11710;BME280;5911;51.036;6.972;2023-04-28T11:36:28;100218.22;;;16.50;100.00
11710;BME280;5911;51.036;6.972;2023-04-28T11:38:57;100222.50;;;16.60;100.00
11710;BME280;5911;51.036;6.972;2023-04-28T11:41:25;100211.66;;;16.69;100.00
11710;BME280;5911;51.036;6.972;2023-04-28T11:43:53;100186.47;;;16.49;100.00
11710;BME280;5911;51.036;6.972;2023-04-28T11:46:24;100173.50;;;16.46;100.00
11710;BME280;5911;51.036;6.972;2023-04-28T11:49:00;100208.88;;;16.94;100.00
11710;BME280;5911;51.036;6.972;2023-04-28T11:51:34;100214.31;;;17.00;100.00
11710;BME280;5911;51.036;6.972;2023-04-28T11:54:04;100208.88;;;16.94;100.00
11710;BME280;5911;51.036;6.972;2023-04-28T11:56:36;100197.16;;;17.03;100.00
11710;BME280;5911;51.036;6.972;2023-04-28T11:59:06;100215.09;;;17.09;100.00
11710;BME280;5911;51.036;6.972;2023-04-28T12:01:43;100214.69;;;17.20;100.00
11710;BME280;5911;51.036;6.972;2023-04-28T12:04:12;100212.47;;;17.46;100.00
11710;BME280;5911;51.036;6.972;2023-04-28T12:06:42;100198.34;;;17.61;100.00
11710;BME280;5911;51.036;6.972;2023-04-28T12:09:17;100213.53;;;17.98;100.00
11710;BME280;5911;51.036;6.972;2023-04-28T12:11:54;100201.00;;;18.13;100.00
11710;BME280;5911;51.036;6.972;2023-04-28T12:14:23;100207.88;;;18.66;100.00
11710;BME280;5911;51.036;6.972;2023-04-28T12:16:51;100201.28;;;18.62;100.00
11710;BME280;5911;51.036;6.972;2023-04-28T12:19:19;100199.69;;;18.53;100.00
11710;BME280;5911;51.036;6.972;2023-04-28T12:22:03;100195.44;;;18.94;100.00
11710;BME280;5911;51.036;6.972;2023-04-28T12:24:32;100201.66;;;18.80;100.00
11710;BME280;5911;51.036;6.972;2023-04-28T12:27:14;100202.28;;;18.97;100.00
11710;BME280;5911;51.036;6.972;2023-04-28T12:29:43;100163.50;;;18.36;100.00
11710;BME280;5911;51.036;6.972;2023-04-28T12:32:13;100192.53;;;18.24;100.00
11710;BME280;5911;51.036;6.972;2023-04-28T12:34:43;100193.72;;;18.21;100.00
11710;BME280;5911;51.036;6.972;2023-04-28T12:37:12;100172.25;;;18.59;100.00
11710;BME280;5911;51.036;6.972;2023-04-28T12:39:40;100163.06;;;19.04;100.00
11710;BME280;5911;51.036;6.972;2023-04-28T12:42:09;100185.22;;;19.19;100.00
11710;BME280;5911;51.036;6.972;2023-04-28T12:44:37;100172.06;;;19.46;100.00
11710;BME280;5911;51.036;6.972;2023-04-28T12:47:07;100187.09;;;20.30;100.00
11710;BME280;5911;51.036;6.972;2023-04-28T12:49:37;100179.84;;;20.72;100.00
11710;BME280;5911;51.036;6.972;2023-04-28T12:52:05;100181.81;;;21.57;100.00
11710;BME280;5911;51.036;6.972;2023-04-28T12:54:34;100188.53;;;20.81;100.00
11710;BME280;5911;51.036;6.972;2023-04-28T12:57:03;100181.72;;;20.30;100.00
11710;BME280;5911;51.036;6.972;2023-04-28T12:59:31;100180.84;;;20.64;100.00
11710;BME280;5911;51.036;6.972;2023-04-28T13:01:59;100176.81;;;21.01;100.00
11710;BME280;5911;51.036;6.972;2023-04-28T13:04:26;100169.59;;;22.01;100.00
11710;BME280;5911;51.036;6.972;2023-04-28T13:06:56;100163.00;;;21.70;100.00